Time;durP1;ratioP1;P1;durP2;ratioP2;P2;SDS_P1;SDS_P2;PMS_P1;PMS_P2;Temp;Humidity;BMP_temperature;BMP_pressure;BME280_temperature;BME280_humidity;BME280_pressure;Samples;Min_cycle;Max_cycle;Signal;HPM_P1;HPM_P2
2023/05/15 00:00:17;;;;;;;7.63;4.85;;;;;;;15.26;70.81;99530.56;4920615;28;20081;-91
2023/05/15 00:02:44;;;;;;;11.85;5.30;;;;;;;15.17;71.15;99527.94;4935920;28;20098;-91
2023/05/15 00:05:12;;;;;;;11.43;4.70;;;;;;;15.12;71.76;99524.09;4918229;28;20043;-92
2023/05/15 00:07:40;;;;;;;11.23;5.10;;;;;;;15.06;72.57;99530.13;4952111;28;20055;-91
2023/05/15 00:10:07;;;;;;;7.78;4.88;;;;;;;15.08;72.47;99530.78;4935603;28;20062;-91
2023/05/15 00:12:34;;;;;;;9.20;4.95;;;;;;;15.07;72.36;99527.28;4919720;28;20044;-90
2023/05/15 00:15:01;;;;;;;12.88;5.63;;;;;;;15.06;71.67;99533.66;4951613;28;20127;-90
2023/05/15 00:17:28;;;;;;;9.07;5.03;;;;;;;15.02;71.59;99528.81;4965144;28;20503;-91
2023/05/15 00:19:56;;;;;;;9.35;5.03;;;;;;;14.93;72.01;99533.34;4938536;28;20066;-90
2023/05/15 00:22:23;;;;;;;10.60;4.90;;;;;;;14.85;72.22;99528.84;4946395;28;20052;-91
2023/05/15 00:24:50;;;;;;;9.65;5.28;;;;;;;14.92;72.11;99537.84;4943870;28;20431;-91
2023/05/15 00:27:17;;;;;;;13.95;4.90;;;;;;;14.91;71.92;99530.84;4949946;28;20220;-90
2023/05/15 00:29:44;;;;;;;9.32;4.88;;;;;;;14.93;72.17;99536.00;4914338;28;20046;-89
2023/05/15 00:32:11;;;;;;;12.30;5.18;;;;;;;14.88;72.53;99541.91;4948915;28;20552;-90
2023/05/15 00:34:38;;;;;;;11.10;5.75;;;;;;;14.88;72.33;99539.22;4938495;28;20062;-90
2023/05/15 00:37:05;;;;;;;9.25;5.05;;;;;;;14.95;72.25;99540.19;4949911;28;20047;-90
2023/05/15 00:39:31;;;;;;;8.65;5.07;;;;;;;14.88;71.96;99530.34;4949087;28;20035;-90
2023/05/15 00:41:59;;;;;;;9.10;5.40;;;;;;;14.81;72.72;99532.03;4934560;28;20430;-90
2023/05/15 00:44:30;;;;;;;9.27;4.70;;;;;;;14.82;72.50;99539.06;4953200;28;20537;-90
2023/05/15 00:46:58;;;;;;;12.50;5.25;;;;;;;14.81;72.69;99538.22;4963562;28;20138;-91
2023/05/15 00:49:26;;;;;;;10.95;4.82;;;;;;;14.71;73.54;99541.09;4933576;28;20067;-89
2023/05/15 00:51:53;;;;;;;8.23;4.53;;;;;;;14.76;73.10;99532.56;4938328;28;20043;-90
2023/05/15 00:54:20;;;;;;;10.45;4.65;;;;;;;14.81;72.95;99537.38;4930439;28;20050;-90
2023/05/15 00:56:48;;;;;;;9.02;5.53;;;;;;;14.76;73.64;99537.91;4920214;28;20047;-91
2023/05/15 00:59:16;;;;;;;8.88;5.05;;;;;;;14.66;74.14;99531.91;4936022;28;20062;-91
2023/05/15 01:01:44;;;;;;;17.27;5.97;;;;;;;14.66;74.28;99538.09;4916119;28;20039;-90
2023/05/15 01:04:11;;;;;;;10.00;4.75;;;;;;;14.68;74.33;99536.09;4937479;28;20047;-90
2023/05/15 01:06:37;;;;;;;9.95;5.18;;;;;;;14.61;74.73;99527.06;4950375;28;20509;-90
2023/05/15 01:09:05;;;;;;;10.90;5.00;;;;;;;14.69;74.35;99534.25;4969456;28;20138;-90
2023/05/15 01:11:35;;;;;;;9.32;5.20;;;;;;;14.61;74.52;99529.75;4953510;28;20043;-90
2023/05/15 01:14:06;;;;;;;7.47;4.65;;;;;;;14.63;74.82;99529.56;4951689;28;20391;-90
2023/05/15 01:16:34;;;;;;;12.10;4.70;;;;;;;14.69;74.39;99534.25;4928376;28;20098;-91
2023/05/15 01:19:02;;;;;;;15.52;5.22;;;;;;;14.71;74.21;99538.41;4964923;28;20054;-91
2023/05/15 01:21:39;;;;;;;11.88;4.93;;;;;;;14.74;73.82;99539.91;4917639;28;20471;-91
2023/05/15 01:24:40;;;;;;;12.43;5.25;;;;;;;14.58;73.85;99534.56;4917576;28;20121;-90
2023/05/15 01:27:18;;;;;;;10.80;4.88;;;;;;;14.61;73.75;99539.59;4952785;28;20043;-92
2023/05/15 01:30:14;;;;;;;11.20;5.38;;;;;;;14.49;74.90;99528.38;4931870;28;20051;-91
2023/05/15 01:33:20;;;;;;;12.75;6.05;;;;;;;14.52;75.33;99531.53;4926951;28;20051;-91
2023/05/15 01:36:04;;;;;;;10.32;5.15;;;;;;;14.62;74.56;99528.72;4945733;28;20122;-90
2023/05/15 01:38:46;;;;;;;10.07;4.97;;;;;;;14.62;74.59;99520.72;4923331;28;20051;-91
2023/05/15 01:41:24;;;;;;;12.85;5.60;;;;;;;14.64;74.46;99526.72;4948233;28;20043;-91
2023/05/15 01:43:58;;;;;;;15.48;5.50;;;;;;;14.73;74.22;99530.22;4927863;28;20127;-90
2023/05/15 01:46:29;;;;;;;12.30;5.30;;;;;;;14.75;73.71;99530.88;4936691;28;20169;-90
2023/05/15 01:49:00;;;;;;;8.43;4.85;;;;;;;14.65;74.14;99525.72;4921916;28;20059;-90
2023/05/15 01:51:27;;;;;;;8.70;4.95;;;;;;;14.66;74.43;99527.41;4938065;28;20102;-90
2023/05/15 01:53:57;;;;;;;11.90;5.40;;;;;;;14.63;74.59;99522.41;4941841;28;20039;-91
2023/05/15 01:56:25;;;;;;;12.63;5.53;;;;;;;14.68;74.90;99524.53;4949306;28;20513;-90
2023/05/15 01:58:52;;;;;;;11.80;5.75;;;;;;;14.69;74.74;99520.88;4953790;28;20153;-91
2023/05/15 02:01:19;;;;;;;12.45;6.13;;;;;;;14.75;74.40;99520.19;4938061;28;20051;-91
2023/05/15 02:03:46;;;;;;;9.30;5.13;;;;;;;14.74;74.31;99516.69;4937626;28;20067;-90
2023/05/15 02:06:13;;;;;;;10.32;5.32;;;;;;;14.75;74.35;99517.50;4954221;28;20050;-91
2023/05/15 02:08:41;;;;;;;11.50;6.10;;;;;;;14.74;74.50;99518.53;4937604;28;20085;-91
2023/05/15 02:11:08;;;;;;;12.90;6.15;;;;;;;14.66;75.02;99521.22;4905275;28;20047;-91
2023/05/15 02:13:35;;;;;;;14.68;5.30;;;;;;;14.73;74.80;99519.50;4970671;28;20050;-90
2023/05/15 02:16:01;;;;;;;9.88;5.20;;;;;;;14.80;74.66;99519.69;4949540;28;20395;-91
2023/05/15 02:18:28;;;;;;;13.05;5.95;;;;;;;14.75;74.69;99517.50;4948580;28;20912;-91
2023/05/15 02:21:01;;;;;;;9.73;4.95;;;;;;;14.76;74.51;99516.53;4938548;28;20053;-90
2023/05/15 02:23:28;;;;;;;18.90;6.47;;;;;;;14.76;74.66;99520.03;4940807;28;20141;-91
2023/05/15 02:26:20;;;;;;;17.38;6.00;;;;;;;14.67;75.34;99521.03;4918588;28;20047;-91
2023/05/15 02:28:57;;;;;;;12.68;5.82;;;;;;;14.70;75.23;99523.38;4950016;28;20039;-90
2023/05/15 02:31:35;;;;;;;10.02;4.72;;;;;;;14.67;75.49;99526.38;4938745;28;20368;-90
2023/05/15 02:34:17;;;;;;;10.35;5.38;;;;;;;14.64;75.99;99520.56;4953598;28;20113;-90
2023/05/15 02:36:46;;;;;;;11.15;6.40;;;;;;;14.62;75.55;99523.38;4927551;28;20052;-92
2023/05/15 02:39:15;;;;;;;13.80;5.90;;;;;;;14.60;75.47;99520.03;4952150;28;20074;-92
2023/05/15 02:41:44;;;;;;;11.95;5.75;;;;;;;14.61;75.49;99515.56;4965748;28;20106;-93
2023/05/15 02:44:11;;;;;;;13.68;6.00;;;;;;;14.60;75.96;99516.53;4922414;28;20054;-92
2023/05/15 02:46:38;;;;;;;14.13;6.55;;;;;;;14.57;75.67;99514.22;4972298;28;20125;-91
2023/05/15 02:49:05;;;;;;;13.15;5.68;;;;;;;14.56;75.63;99510.72;4937120;28;20043;-90
2023/05/15 02:51:32;;;;;;;12.75;5.47;;;;;;;14.65;75.61;99514.19;4939252;28;20050;-91
2023/05/15 02:54:00;;;;;;;10.80;5.70;;;;;;;14.67;75.34;99515.69;4949815;28;20058;-90
2023/05/15 02:56:27;;;;;;;15.02;5.70;;;;;;;14.63;75.39;99517.06;4937206;28;20404;-91
2023/05/15 02:58:54;;;;;;;13.98;5.38;;;;;;;14.67;75.37;99512.19;4947715;28;20055;-91
2023/05/15 03:01:21;;;;;;;13.65;5.55;;;;;;;14.67;75.25;99506.84;4932525;28;20471;-91
2023/05/15 03:03:48;;;;;;;12.75;5.70;;;;;;;14.67;75.40;99502.31;4940983;28;20043;-92
2023/05/15 03:06:15;;;;;;;13.30;6.03;;;;;;;14.63;75.53;99505.50;4938081;28;20051;-90
2023/05/15 03:08:42;;;;;;;17.65;7.38;;;;;;;14.61;75.56;99515.56;4931413;28;20063;-91
2023/05/15 03:11:09;;;;;;;13.20;6.05;;;;;;;14.50;75.71;99503.31;4939394;28;20085;-91
2023/05/15 03:13:36;;;;;;;11.88;5.45;;;;;;;14.57;75.67;99512.38;4949008;28;20054;-90
2023/05/15 03:16:03;;;;;;;10.18;5.57;;;;;;;14.57;75.48;99511.53;4929910;28;20055;-92
2023/05/15 03:18:30;;;;;;;12.55;5.35;;;;;;;14.54;75.64;99507.38;4939504;28;20098;-90
2023/05/15 03:20:57;;;;;;;9.30;5.40;;;;;;;14.48;75.85;99508.03;4939014;28;20129;-90
2023/05/15 03:23:23;;;;;;;15.40;6.88;;;;;;;14.47;76.18;99501.00;4946815;28;20058;-84
2023/05/15 03:25:50;;;;;;;11.93;6.15;;;;;;;14.43;76.26;99505.84;4966259;28;20046;-85
2023/05/15 03:28:17;;;;;;;11.02;5.85;;;;;;;14.38;76.51;99502.03;4939310;28;20046;-85
2023/05/15 03:30:44;;;;;;;13.43;7.13;;;;;;;14.35;76.47;99505.88;4968073;28;20454;-85
2023/05/15 03:33:11;;;;;;;12.77;6.05;;;;;;;14.40;76.32;99508.88;4937000;28;20376;-84
2023/05/15 03:35:37;;;;;;;10.93;6.38;;;;;;;14.43;75.94;99507.69;4950265;28;20050;-84
2023/05/15 03:38:04;;;;;;;13.02;6.30;;;;;;;14.46;75.82;99515.38;4932800;28;20097;-84
2023/05/15 03:40:31;;;;;;;13.82;6.57;;;;;;;14.45;75.90;99509.19;4966473;28;20051;-85
2023/05/15 03:42:58;;;;;;;12.13;5.90;;;;;;;14.38;76.13;99507.38;4918322;28;20061;-85
2023/05/15 03:45:34;;;;;;;13.68;6.25;;;;;;;14.20;76.71;99512.88;4949161;28;20495;-84
2023/05/15 03:48:00;;;;;;;13.27;5.97;;;;;;;14.32;76.32;99516.88;4947839;28;20069;-85
2023/05/15 03:50:28;;;;;;;14.18;6.38;;;;;;;14.32;76.10;99511.53;4947452;28;20049;-84
2023/05/15 03:52:58;;;;;;;11.40;5.90;;;;;;;14.27;76.72;99514.72;4932565;28;20051;-84
2023/05/15 03:55:25;;;;;;;17.63;6.32;;;;;;;14.29;76.45;99518.03;4946050;28;20519;-84
2023/05/15 03:57:52;;;;;;;15.38;6.57;;;;;;;14.32;76.63;99508.84;4951021;28;20841;-84
2023/05/15 04:00:18;;;;;;;12.93;6.03;;;;;;;14.30;76.57;99509.03;4924410;28;20054;-84
2023/05/15 04:02:47;;;;;;;12.52;5.78;;;;;;;14.20;77.29;99508.38;4946487;28;20050;-84
2023/05/15 04:05:14;;;;;;;14.48;6.13;;;;;;;14.20;77.28;99504.88;4950418;28;20834;-84
2023/05/15 04:07:40;;;;;;;11.55;6.03;;;;;;;14.15;77.14;99504.53;4917251;28;20045;-84
2023/05/15 04:10:07;;;;;;;15.57;6.40;;;;;;;14.16;77.27;99506.19;4948841;28;20530;-83
2023/05/15 04:12:35;;;;;;;12.18;5.90;;;;;;;14.24;76.97;99504.34;4932595;28;20062;-84
2023/05/15 04:15:16;;;;;;;13.40;6.03;;;;;;;14.09;76.90;99509.53;4949775;28;20442;-84
2023/05/15 04:17:44;;;;;;;14.57;6.93;;;;;;;14.56;77.30;99510.72;4945001;28;20063;-85
2023/05/15 04:20:16;;;;;;;15.45;6.90;;;;;;;15.29;74.29;99514.16;4948157;28;20394;-84
2023/05/15 04:22:43;;;;;;;17.65;6.57;;;;;;;16.03;72.71;99511.94;4934617;28;20051;-84
2023/05/15 04:25:11;;;;;;;14.32;6.45;;;;;;;16.23;70.61;99506.91;4947848;28;20517;-84
2023/05/15 04:27:38;;;;;;;15.90;6.45;;;;;;;16.13;69.76;99509.84;4933431;28;20506;-86
2023/05/15 04:30:06;;;;;;;12.18;5.65;;;;;;;15.98;69.52;99512.47;4922162;28;20537;-88
2023/05/15 04:32:33;;;;;;;12.75;5.95;;;;;;;15.64;70.84;99508.28;4950174;28;20054;-85
2023/05/15 04:35:04;;;;;;;10.93;6.43;;;;;;;15.31;71.59;99501.44;4948595;28;20050;-84
2023/05/15 04:37:31;;;;;;;13.80;6.63;;;;;;;15.18;72.29;99500.16;4966350;28;20407;-86
2023/05/15 04:39:58;;;;;;;13.23;6.85;;;;;;;15.07;72.85;99503.22;4931958;28;20048;-85
2023/05/15 04:42:25;;;;;;;15.05;7.28;;;;;;;14.98;73.10;99507.78;4931402;28;20042;-84
2023/05/15 04:44:52;;;;;;;11.52;6.13;;;;;;;14.87;73.82;99496.59;4932515;28;20073;-84
2023/05/15 04:47:19;;;;;;;12.77;6.50;;;;;;;14.86;74.24;99502.97;4935918;28;20102;-85
2023/05/15 04:49:47;;;;;;;14.32;6.05;;;;;;;14.81;74.03;99500.81;4932716;28;20042;-86
2023/05/15 04:52:13;;;;;;;19.08;7.57;;;;;;;14.77;74.21;99505.66;4936625;28;20073;-85
2023/05/15 04:54:40;;;;;;;16.60;7.57;;;;;;;14.80;74.19;99509.81;4954168;28;20406;-84
2023/05/15 04:57:07;;;;;;;14.60;7.13;;;;;;;14.72;74.24;99508.00;4943620;28;20154;-85
2023/05/15 04:59:35;;;;;;;17.65;7.68;;;;;;;14.72;74.42;99510.66;4952332;28;20126;-85
2023/05/15 05:02:01;;;;;;;15.63;6.82;;;;;;;14.79;74.41;99504.66;4948321;28;20047;-85
2023/05/15 05:04:28;;;;;;;13.15;6.55;;;;;;;14.77;74.40;99512.84;4966574;28;20098;-85
2023/05/15 05:06:55;;;;;;;15.68;6.47;;;;;;;14.83;74.66;99516.66;4945802;28;20055;-86
2023/05/15 05:09:22;;;;;;;13.10;5.82;;;;;;;14.87;74.59;99515.31;4946679;28;20071;-85
2023/05/15 05:11:49;;;;;;;12.98;6.75;;;;;;;14.90;74.34;99514.97;4933696;28;20039;-84
2023/05/15 05:14:15;;;;;;;13.18;6.90;;;;;;;14.86;74.41;99513.66;4933919;28;20047;-84
2023/05/15 05:16:45;;;;;;;16.30;6.40;;;;;;;14.86;74.53;99519.00;4947625;28;20134;-84
2023/05/15 05:19:12;;;;;;;16.05;7.47;;;;;;;14.89;74.53;99524.00;4965692;28;20784;-84
2023/05/15 05:21:39;;;;;;;12.85;6.53;;;;;;;14.92;74.61;99521.00;4947884;28;20065;-83
2023/05/15 05:24:05;;;;;;;16.35;7.72;;;;;;;14.93;74.16;99522.66;4934915;28;20101;-83
2023/05/15 05:26:32;;;;;;;18.88;8.88;;;;;;;14.89;74.16;99527.50;4951354;28;20416;-84
2023/05/15 05:28:59;;;;;;;19.05;7.70;;;;;;;14.88;74.29;99523.19;4934483;28;20422;-83
2023/05/15 05:31:25;;;;;;;15.13;7.65;;;;;;;15.03;74.21;99528.63;4961265;28;20071;-84
2023/05/15 05:33:52;;;;;;;21.85;8.48;;;;;;;15.07;74.04;99523.78;4930774;28;20036;-83
2023/05/15 05:36:19;;;;;;;17.17;9.18;;;;;;;14.99;74.40;99530.00;4948606;28;20043;-84
2023/05/15 05:38:45;;;;;;;16.13;8.07;;;;;;;15.02;74.66;99532.31;4946458;28;20053;-83
2023/05/15 05:41:12;;;;;;;19.48;8.57;;;;;;;15.05;74.42;99537.31;4949042;28;20494;-84
2023/05/15 05:43:39;;;;;;;19.52;8.13;;;;;;;15.06;74.69;99531.00;4951503;28;20055;-84
2023/05/15 05:46:06;;;;;;;18.13;8.60;;;;;;;15.08;74.60;99533.47;4943195;28;20200;-84
2023/05/15 05:48:33;;;;;;;16.52;8.20;;;;;;;15.15;74.52;99529.94;4947566;28;20166;-83
2023/05/15 05:50:59;;;;;;;18.00;8.30;;;;;;;15.26;74.26;99526.03;4963215;28;20046;-84
2023/05/15 05:53:26;;;;;;;14.05;7.68;;;;;;;15.36;74.22;99529.34;4948960;28;20059;-84
2023/05/15 05:55:53;;;;;;;19.70;8.93;;;;;;;15.45;73.85;99510.59;4919164;28;20499;-83
2023/05/15 05:58:20;;;;;;;17.20;8.48;;;;;;;15.57;74.29;99517.19;4929674;28;20043;-84
2023/05/15 06:00:52;;;;;;;18.35;8.05;;;;;;;15.61;74.04;99514.00;4920312;28;20073;-84
2023/05/15 06:03:19;;;;;;;16.77;7.00;;;;;;;15.66;73.58;99516.16;4931984;28;20790;-84
2023/05/15 06:05:47;;;;;;;16.58;7.45;;;;;;;15.69;73.27;99520.31;4931678;28;20122;-83
2023/05/15 06:08:14;;;;;;;19.45;8.52;;;;;;;15.67;72.96;99508.94;4946844;28;20510;-84
2023/05/15 06:10:41;;;;;;;16.17;7.82;;;;;;;15.69;73.03;99517.63;4917324;28;20491;-84
2023/05/15 06:13:08;;;;;;;16.02;7.53;;;;;;;15.67;72.52;99512.44;4930588;28;20067;-83
2023/05/15 06:15:34;;;;;;;20.05;8.32;;;;;;;15.69;72.71;99515.81;4937215;28;20569;-84
2023/05/15 06:18:01;;;;;;;19.13;8.65;;;;;;;15.69;72.84;99510.47;4945943;28;20113;-83
2023/05/15 06:20:28;;;;;;;22.13;8.40;;;;;;;15.72;72.85;99517.31;4967303;28;20118;-84
2023/05/15 06:22:55;;;;;;;17.40;8.02;;;;;;;15.71;72.70;99513.81;4951215;28;20098;-83
2023/05/15 06:25:21;;;;;;;19.55;8.07;;;;;;;15.71;72.55;99510.31;4936989;28;20082;-84
2023/05/15 06:27:49;;;;;;;18.15;7.75;;;;;;;15.74;72.43;99517.97;4952798;28;20517;-84
2023/05/15 06:30:15;;;;;;;18.98;8.82;;;;;;;15.75;72.12;99525.00;4927507;28;20129;-84
2023/05/15 06:32:42;;;;;;;18.45;9.18;;;;;;;15.74;71.91;99515.31;4945870;28;20073;-84
2023/05/15 06:35:09;;;;;;;14.48;8.15;;;;;;;15.73;72.09;99516.31;4948539;28;20047;-84
2023/05/15 06:37:36;;;;;;;18.38;9.02;;;;;;;15.72;72.02;99512.81;4953993;28;20050;-84
2023/05/15 06:40:05;;;;;;;22.50;8.93;;;;;;;15.72;72.11;99515.50;4953088;28;20129;-84
2023/05/15 06:42:32;;;;;;;25.52;9.10;;;;;;;15.72;72.26;99512.81;4947856;28;20494;-84
2023/05/15 06:44:59;;;;;;;21.23;8.68;;;;;;;15.73;71.96;99510.97;4949322;28;20043;-84
2023/05/15 06:47:25;;;;;;;18.20;10.00;;;;;;;15.75;72.07;99515.13;4967719;28;20125;-84
2023/05/15 06:49:54;;;;;;;20.92;8.63;;;;;;;15.76;72.29;99526.66;4951688;28;20039;-84
2023/05/15 06:52:20;;;;;;;22.95;9.88;;;;;;;15.79;72.01;99526.31;4956224;28;20070;-84
2023/05/15 06:54:47;;;;;;;22.70;9.15;;;;;;;15.80;72.33;99531.50;4935961;28;20043;-84
2023/05/15 06:57:14;;;;;;;20.33;9.10;;;;;;;15.84;72.33;99531.97;4964156;28;20044;-85
2023/05/15 06:59:41;;;;;;;23.58;8.70;;;;;;;15.90;72.37;99525.06;4948397;28;20094;-84
2023/05/15 07:02:08;;;;;;;20.80;8.68;;;;;;;15.98;72.37;99522.34;4936903;28;20126;-84
2023/05/15 07:04:35;;;;;;;17.95;9.05;;;;;;;16.05;72.16;99524.13;4947546;28;20051;-83
2023/05/15 07:07:02;;;;;;;22.60;8.50;;;;;;;16.13;72.52;99515.22;4937163;28;20490;-84
2023/05/15 07:09:28;;;;;;;20.90;8.90;;;;;;;16.16;71.54;99514.00;4951278;28;20122;-83
2023/05/15 07:11:55;;;;;;;14.85;8.05;;;;;;;16.15;71.28;99515.84;4927879;28;20403;-84
2023/05/15 07:14:22;;;;;;;21.67;8.13;;;;;;;16.18;70.92;99518.19;4934479;28;21069;-83
2023/05/15 07:16:48;;;;;;;15.70;7.45;;;;;;;16.22;70.59;99516.78;4935060;28;20122;-83
2023/05/15 07:19:21;;;;;;;15.55;8.00;;;;;;;16.26;69.86;99511.91;4951083;28;20042;-84
2023/05/15 07:21:48;;;;;;;14.73;7.30;;;;;;;16.30;71.14;99517.75;4952261;28;20065;-84
2023/05/15 07:24:14;;;;;;;13.70;7.00;;;;;;;16.34;70.67;99516.38;4946863;28;20750;-84
2023/05/15 07:26:41;;;;;;;16.00;8.20;;;;;;;16.37;69.72;99508.78;4949172;28;20051;-84
2023/05/15 07:29:24;;;;;;;14.35;7.85;;;;;;;16.37;70.35;99514.16;4967402;28;20521;-83
2023/05/15 07:31:50;;;;;;;15.32;7.30;;;;;;;16.44;70.21;99516.97;4948011;28;20050;-83
2023/05/15 07:34:17;;;;;;;14.77;7.20;;;;;;;16.46;70.86;99514.91;4951524;28;20063;-83
2023/05/15 07:36:44;;;;;;;16.45;7.82;;;;;;;16.50;70.36;99508.19;4936743;28;20057;-83
2023/05/15 07:39:11;;;;;;;16.00;8.40;;;;;;;16.51;69.74;99504.47;4947076;28;20411;-83
2023/05/15 07:41:37;;;;;;;13.98;8.25;;;;;;;16.46;69.38;99498.81;4951091;28;20134;-84
2023/05/15 07:44:04;;;;;;;15.38;7.90;;;;;;;16.46;69.78;99498.81;4951127;28;20734;-84
2023/05/15 07:46:32;;;;;;;15.25;8.00;;;;;;;16.44;69.85;99495.53;4955873;28;20042;-84
2023/05/15 07:48:59;;;;;;;16.08;9.05;;;;;;;16.45;70.06;99508.72;4955459;28;20502;-84
2023/05/15 07:51:26;;;;;;;18.92;9.07;;;;;;;16.49;70.16;99504.66;4959270;28;20035;-84
2023/05/15 07:53:53;;;;;;;15.45;9.13;;;;;;;16.52;69.79;99499.97;4947183;28;20043;-84
2023/05/15 07:56:20;;;;;;;13.60;7.65;;;;;;;16.54;70.08;99503.28;4949135;28;20384;-83
2023/05/15 07:58:47;;;;;;;18.25;9.02;;;;;;;16.57;70.05;99500.25;4952047;28;20057;-84
2023/05/15 08:01:14;;;;;;;15.75;8.65;;;;;;;16.61;70.02;99506.88;4915068;28;20126;-83
2023/05/15 08:03:41;;;;;;;15.43;9.00;;;;;;;16.60;69.91;99498.03;4950334;28;20055;-83
2023/05/15 08:06:08;;;;;;;17.70;8.95;;;;;;;16.62;69.95;99506.72;4948047;28;20115;-83
2023/05/15 08:08:35;;;;;;;13.68;8.18;;;;;;;16.62;69.98;99497.84;4947852;28;20118;-83
2023/05/15 08:11:01;;;;;;;14.80;8.55;;;;;;;16.64;68.87;99499.34;4933992;28;20055;-84
2023/05/15 08:13:28;;;;;;;16.88;8.70;;;;;;;16.63;68.05;99499.50;4948993;28;20050;-84
2023/05/15 08:15:55;;;;;;;15.75;8.63;;;;;;;16.65;67.37;99500.16;4949517;28;20043;-84
2023/05/15 08:18:22;;;;;;;14.90;8.32;;;;;;;16.50;65.97;99490.25;4923546;28;20558;-84
2023/05/15 08:20:49;;;;;;;16.85;8.82;;;;;;;16.57;67.16;99489.53;4965005;28;20043;-84
2023/05/15 08:23:15;;;;;;;18.70;9.38;;;;;;;16.61;67.25;99498.84;4962110;28;20047;-84
2023/05/15 08:25:42;;;;;;;14.50;9.02;;;;;;;16.61;67.44;99496.16;4948955;28;20459;-84
2023/05/15 08:28:09;;;;;;;14.50;8.50;;;;;;;16.63;67.43;99499.50;4933649;28;20055;-84
2023/05/15 08:30:36;;;;;;;18.83;9.38;;;;;;;16.66;66.93;99501.81;4947431;28;20071;-84
2023/05/15 08:33:03;;;;;;;15.57;9.38;;;;;;;16.67;66.89;99493.59;4950963;28;20046;-83
2023/05/15 08:35:30;;;;;;;18.92;8.30;;;;;;;16.72;67.08;99490.38;4942971;28;20102;-84
2023/05/15 08:37:57;;;;;;;17.50;8.70;;;;;;;16.77;66.81;99495.19;4965655;28;20086;-84
2023/05/15 08:40:25;;;;;;;20.77;9.50;;;;;;;16.73;66.21;99493.88;4946981;28;20039;-83
2023/05/15 08:43:00;;;;;;;21.60;10.07;;;;;;;16.70;66.21;99485.19;4950783;28;20070;-84
2023/05/15 08:45:27;;;;;;;19.75;8.10;;;;;;;16.76;66.63;99485.47;4931681;28;20672;-84
2023/05/15 08:47:54;;;;;;;15.75;9.27;;;;;;;16.79;66.47;99487.81;4968575;28;20043;-83
2023/05/15 08:50:21;;;;;;;14.90;8.43;;;;;;;16.79;65.90;99485.13;4965054;28;20043;-83
2023/05/15 08:52:48;;;;;;;16.13;9.02;;;;;;;16.80;66.07;99484.94;4963736;28;20059;-84
2023/05/15 08:55:16;;;;;;;20.85;8.60;;;;;;;16.84;66.47;99477.34;4933420;28;20054;-84
2023/05/15 08:57:43;;;;;;;14.38;8.50;;;;;;;16.92;66.90;99488.00;4933587;28;20046;-84
2023/05/15 09:00:13;;;;;;;13.75;8.73;;;;;;;16.93;66.84;99478.94;4936247;28;20958;-84
2023/05/15 09:02:41;;;;;;;14.77;9.40;;;;;;;16.99;66.91;99480.88;4912617;28;20039;-84
2023/05/15 09:05:08;;;;;;;20.70;10.15;;;;;;;17.09;66.82;99477.91;4941200;28;20702;-83
2023/05/15 09:07:37;;;;;;;15.27;8.85;;;;;;;17.13;67.38;99469.31;4933289;28;20046;-84
2023/05/15 09:10:05;;;;;;;20.55;10.20;;;;;;;17.09;65.33;99470.69;4948211;28;20118;-84
2023/05/15 09:12:33;;;;;;;16.92;8.27;;;;;;;17.16;66.16;99470.78;4945631;28;20071;-83
2023/05/15 09:15:14;;;;;;;18.10;9.85;;;;;;;17.18;66.48;99463.38;4948478;28;20939;-84
2023/05/15 09:17:42;;;;;;;14.95;8.27;;;;;;;17.24;66.59;99467.97;4945408;28;20039;-83
2023/05/15 09:20:31;;;;;;;22.17;10.13;;;;;;;17.20;66.43;99472.06;4920738;28;20044;-84
2023/05/15 09:22:59;;;;;;;13.75;8.68;;;;;;;17.28;65.53;99460.41;4932466;28;20734;-83
2023/05/15 09:25:43;;;;;;;16.45;10.57;;;;;;;17.23;65.64;99468.19;4947809;28;20043;-83
2023/05/15 09:28:26;;;;;;;19.20;10.05;;;;;;;17.29;66.40;99459.38;4947676;28;20069;-83
2023/05/15 09:30:57;;;;;;;;;;;;;;;17.18;67.51;99474.09;4940271;28;20671;-84
2023/05/15 09:33:30;;;;;;;12.70;8.40;;;;;;;17.32;64.77;99464.34;4927578;28;19927;-84
2023/05/15 09:35:57;;;;;;;16.40;9.43;;;;;;;17.33;63.40;99452.63;4962129;28;20052;-84
2023/05/15 09:38:24;;;;;;;22.90;9.93;;;;;;;17.32;63.96;99448.25;4914954;28;20455;-84
2023/05/15 09:41:01;;;;;;;19.15;10.50;;;;;;;17.30;63.78;99452.97;4962552;28;20047;-84
2023/05/15 09:43:29;;;;;;;18.75;9.57;;;;;;;17.39;65.10;99448.34;4947714;28;20184;-84
2023/05/15 09:45:56;;;;;;;19.80;9.38;;;;;;;17.44;65.94;99441.38;4949442;28;20043;-84
2023/05/15 09:48:22;;;;;;;21.80;10.10;;;;;;;17.49;64.99;99443.50;4946329;28;20130;-84
2023/05/15 09:50:49;;;;;;;17.48;10.02;;;;;;;17.46;63.86;99443.88;4949595;28;20520;-84
2023/05/15 09:53:16;;;;;;;19.45;9.30;;;;;;;17.48;65.11;99442.66;4948951;28;20055;-84
2023/05/15 09:55:47;;;;;;;16.15;9.57;;;;;;;17.52;65.43;99438.56;4931104;28;20101;-83
2023/05/15 09:58:16;;;;;;;17.77;9.25;;;;;;;17.56;65.52;99442.53;4966702;28;20054;-83
2023/05/15 10:00:44;;;;;;;17.40;9.32;;;;;;;17.62;65.73;99430.22;4947015;28;20043;-83
2023/05/15 10:03:16;;;;;;;19.90;8.75;;;;;;;17.68;65.88;99431.28;4949277;28;20058;-84
2023/05/15 10:05:43;;;;;;;17.85;9.77;;;;;;;17.80;65.62;99427.09;4963493;28;20077;-84
2023/05/15 10:08:11;;;;;;;15.27;9.68;;;;;;;17.86;64.59;99430.88;4968059;28;20053;-84
2023/05/15 10:10:38;;;;;;;15.15;9.85;;;;;;;17.92;64.17;99427.44;4933981;28;20478;-84
2023/05/15 10:13:06;;;;;;;22.05;10.27;;;;;;;17.91;62.05;99426.59;4938946;28;20446;-84
2023/05/15 10:15:33;;;;;;;15.95;8.88;;;;;;;17.89;62.33;99430.50;4953341;28;20058;-84
2023/05/15 10:18:00;;;;;;;16.42;9.70;;;;;;;17.90;61.65;99421.41;4944194;28;20043;-83
2023/05/15 10:20:27;;;;;;;16.23;8.82;;;;;;;17.89;61.88;99417.91;4951617;28;20398;-84
2023/05/15 10:22:55;;;;;;;17.58;9.95;;;;;;;17.91;62.48;99421.22;4948076;28;20134;-84
2023/05/15 10:25:33;;;;;;;16.67;9.85;;;;;;;17.86;62.08;99417.44;4954357;28;20529;-84
2023/05/15 10:28:00;;;;;;;18.25;9.50;;;;;;;17.88;61.34;99418.09;4953007;28;20109;-84
2023/05/15 10:30:27;;;;;;;14.80;9.52;;;;;;;17.83;62.32;99413.28;4933936;28;20047;-84
2023/05/15 10:32:54;;;;;;;17.75;10.10;;;;;;;17.82;61.81;99417.00;4966793;28;20050;-84
2023/05/15 10:35:22;;;;;;;13.73;8.77;;;;;;;17.77;61.78;99405.97;4950746;28;20486;-84
2023/05/15 10:37:49;;;;;;;18.17;9.20;;;;;;;17.73;62.31;99402.84;4949522;28;20043;-84
2023/05/15 10:40:16;;;;;;;16.80;9.77;;;;;;;17.75;61.60;99410.72;4935559;28;20107;-84
2023/05/15 10:42:45;;;;;;;13.93;8.50;;;;;;;17.76;61.76;99409.69;4952554;28;20641;-84
2023/05/15 10:45:12;;;;;;;16.20;9.70;;;;;;;17.74;61.74;99409.88;4950413;28;20542;-85
2023/05/15 10:47:41;;;;;;;16.52;9.00;;;;;;;17.75;61.87;99395.41;4967667;28;20042;-83
2023/05/15 10:50:09;;;;;;;19.83;9.63;;;;;;;17.77;61.07;99406.81;4935987;28;20043;-84
2023/05/15 10:52:36;;;;;;;14.60;8.55;;;;;;;17.81;61.49;99401.06;4919545;28;20411;-83
2023/05/15 10:55:08;;;;;;;13.48;8.55;;;;;;;17.86;62.04;99396.81;4969103;28;20055;-84
2023/05/15 10:57:35;;;;;;;13.75;9.13;;;;;;;17.92;61.93;99390.66;4930912;28;20050;-84
2023/05/15 11:00:04;;;;;;;15.18;9.18;;;;;;;18.02;61.67;99394.88;4922129;28;20054;-84
2023/05/15 11:02:37;;;;;;;19.70;8.82;;;;;;;18.03;62.21;99388.44;4950419;28;20054;-84
2023/05/15 11:05:04;;;;;;;14.43;9.13;;;;;;;18.04;61.16;99390.97;4930540;28;20049;-83
2023/05/15 11:07:31;;;;;;;15.95;9.07;;;;;;;18.04;61.12;99393.66;4950376;28;20047;-84
2023/05/15 11:09:58;;;;;;;13.38;8.40;;;;;;;18.05;61.49;99392.59;4939192;28;20142;-84
2023/05/15 11:12:24;;;;;;;16.67;8.43;;;;;;;18.11;61.63;99381.06;4952455;28;20569;-83
2023/05/15 11:14:54;;;;;;;13.50;8.43;;;;;;;18.11;61.47;99388.31;4951548;28;20495;-84
2023/05/15 11:17:24;;;;;;;13.90;8.45;;;;;;;18.07;60.44;99392.41;4951245;28;20118;-84
2023/05/15 11:19:51;;;;;;;18.20;9.40;;;;;;;18.01;59.67;99380.56;4947629;28;20046;-83
2023/05/15 11:22:29;;;;;;;14.50;8.35;;;;;;;17.94;59.54;99390.47;4952595;28;20143;-84
2023/05/15 11:25:10;;;;;;;13.45;8.48;;;;;;;17.85;58.43;99381.69;4950103;28;20047;-83
2023/05/15 11:27:42;;;;;;;14.60;8.63;;;;;;;17.93;59.61;99376.19;4946099;28;20605;-84
2023/05/15 11:30:21;;;;;;;13.45;8.27;;;;;;;17.86;57.11;99377.16;4934181;28;20061;-84
2023/05/15 11:32:57;;;;;;;17.25;7.95;;;;;;;17.91;57.93;99378.25;4929994;28;20055;-83